Nearby METAR Reports

 

KFRG - , , USA
Distance from station: SSW 12mi, 20km
Updated: 04/22/2018 3:53pm
Clear
Clear
 Wind from S
Wind: S 15 mph , 24 km/h
Temperature: 59°F , 15°C
Dew Point: 25°F , -4°C
Humidity: 27%
Barometer: 30.35 inHg , 1027.8 hPa
Clouds: Clear
Visibility: 10 miles , 16 km
2018/04/22 19:53 KFRG 221953Z 18013KT 10SM CLR 15/M04 A3035 RMK AO2 SLP276 T01501039
KISP - , , USA
Distance from station: ESE 14mi, 23km
Updated: 04/22/2018 3:56pm
Few Clouds
Few Clouds
 Wind from S
Wind: S 15 mph , 24 km/h
Temperature: 57°F , 14°C
Dew Point: 27°F , -3°C
Humidity: 31%
Barometer: 30.34 inHg , 1027.4 hPa
Clouds: Few Clouds
Visibility: 10 miles , 16 km
Cloud details: Few Clouds 25000 ft
2018/04/22 19:56 KISP 221956Z 19013KT 10SM FEW250 14/M03 A3034 RMK AO2 SLP274 T01441028
 
KBDR - , , USA
Distance from station: NNE 21mi, 34km
Updated: 04/22/2018 3:52pm
Clear
Clear
 Wind from S
Wind: S 14 mph , 22 km/h
Temperature: 61°F , 16°C
Dew Point: 19°F , -7°C
Humidity: 20%
Barometer: 30.32 inHg , 1026.8 hPa
Clouds: Clear
Visibility: 10 miles , 16 km
2018/04/22 19:52 KBDR 221952Z 19012KT 10SM CLR 16/M07 A3032 RMK AO2 SLP266 T01561072
KHPN - , , USA
Distance from station: WNW 22mi, 35km
Updated: 04/22/2018 3:56pm
Clear
Clear
 Wind from NW
Wind: NW 6 mph , 9 km/h
Temperature: 63°F , 17°C
Dew Point: 16°F , -9°C
Humidity: 16%
Barometer: 30.31 inHg , 1026.4 hPa
Clouds: Clear
Visibility: 10 miles , 16 km
2018/04/22 19:56 KHPN 221956Z 31005KT 10SM CLR 17/M09 A3031 RMK AO2 SLP267 T01671094
 
KHWV - , , USA
Distance from station: ESE 26mi, 41km
Updated: 04/22/2018 3:56pm
Clear
Clear
 Wind from S
Wind: S 15 mph , 24 km/h
Temperature: 59°F , 15°C
Dew Point: 27°F , -3°C
Humidity: 29%
Barometer: 30.35 inHg , 1027.8 hPa
Clouds: Clear
Visibility: 10 miles , 16 km
2018/04/22 19:56 KHWV 221956Z AUTO 19013KT 10SM CLR 15/M03 A3035 RMK AO2 SLP276 T01501033
KJFK - , , USA
Distance from station: SW 29mi, 46km
Updated: 04/22/2018 3:51pm
Partly cloudy
Partly cloudy
 Wind from S
Wind: S 16 mph , 26 km/h
Temperature: 57°F , 14°C
Dew Point: 27°F , -3°C
Humidity: 31%
Barometer: 30.36 inHg , 1028.1 hPa
Clouds: Partly cloudy
Visibility: 10 miles , 16 km
Cloud details: Partly cloudy 25000 ft
2018/04/22 19:51 KJFK 221951Z 19014KT 10SM SCT250 14/M03 A3036 RMK AO2 SLP281 T01391028
 
KLGA - , , USA
Distance from station: WSW 29mi, 47km
Updated: 04/22/2018 3:51pm
Partly cloudy
Partly cloudy
 Wind from SSE
Wind: SSE 14 mph , 22 km/h, Gust: 18 mph , 30 km/h
Temperature: 64°F , 18°C
Dew Point: 25°F , -4°C
Humidity: 22%
Barometer: 30.33 inHg , 1027.1 hPa
Clouds: Partly cloudy
Visibility: 10 miles , 16 km
Cloud details: Partly cloudy 25000 ft
2018/04/22 19:51 KLGA 221951Z 16012G16KT 10SM SCT250 18/M04 A3033 RMK AO2 SLP268 T01781044